sensor_id;sensor_type;location;lat;lon;timestamp;pressure;altitude;pressure_sealevel;temperature;humidity
69187;BME280;56301;56.864;60.554;2022-08-02T00:01:41;98598.00;;;23.96;58.15
69187;BME280;56301;56.864;60.554;2022-08-02T00:04:04;98596.41;;;23.87;56.05
69187;BME280;56301;56.864;60.554;2022-08-02T00:08:49;98609.78;;;22.95;57.67
69187;BME280;56301;56.864;60.554;2022-08-02T00:11:11;98610.34;;;22.82;57.37
69187;BME280;56301;56.864;60.554;2022-08-02T00:13:34;98611.84;;;22.76;57.59
69187;BME280;56301;56.864;60.554;2022-08-02T00:15:56;98612.13;;;22.98;58.63
69187;BME280;56301;56.864;60.554;2022-08-02T00:18:19;98611.88;;;23.16;58.28
69187;BME280;56301;56.864;60.554;2022-08-02T00:20:41;98608.78;;;23.27;58.83
69187;BME280;56301;56.864;60.554;2022-08-02T00:23:03;98610.09;;;23.31;59.44
69187;BME280;56301;56.864;60.554;2022-08-02T00:25:26;98618.34;;;23.38;59.62
69187;BME280;56301;56.864;60.554;2022-08-02T00:27:48;98608.56;;;23.37;60.01
69187;BME280;56301;56.864;60.554;2022-08-02T00:30:11;98612.56;;;23.41;60.35
69187;BME280;56301;56.864;60.554;2022-08-02T00:32:34;98611.03;;;23.46;59.51
69187;BME280;56301;56.864;60.554;2022-08-02T00:34:56;98618.88;;;23.56;59.84
69187;BME280;56301;56.864;60.554;2022-08-02T00:37:18;98616.16;;;23.64;59.09
69187;BME280;56301;56.864;60.554;2022-08-02T00:39:41;98619.16;;;23.69;58.67
69187;BME280;56301;56.864;60.554;2022-08-02T00:42:03;98615.06;;;23.73;59.12
69187;BME280;56301;56.864;60.554;2022-08-02T00:44:26;98612.22;;;23.75;58.56
69187;BME280;56301;56.864;60.554;2022-08-02T00:46:48;98616.38;;;23.77;58.60
69187;BME280;56301;56.864;60.554;2022-08-02T00:49:11;98621.44;;;23.81;58.12
69187;BME280;56301;56.864;60.554;2022-08-02T00:51:33;98621.28;;;23.82;58.49
69187;BME280;56301;56.864;60.554;2022-08-02T00:53:56;98623.78;;;23.84;57.79
69187;BME280;56301;56.864;60.554;2022-08-02T00:56:18;98626.47;;;23.84;58.22
69187;BME280;56301;56.864;60.554;2022-08-02T00:58:41;98618.38;;;23.84;57.59
69187;BME280;56301;56.864;60.554;2022-08-02T01:01:03;98626.47;;;23.84;57.40
69187;BME280;56301;56.864;60.554;2022-08-02T01:03:26;98622.59;;;23.86;57.84
69187;BME280;56301;56.864;60.554;2022-08-02T01:05:48;98626.97;;;23.87;57.87
69187;BME280;56301;56.864;60.554;2022-08-02T01:08:14;98632.38;;;23.87;57.95
69187;BME280;56301;56.864;60.554;2022-08-02T01:10:36;98619.06;;;23.86;57.93
69187;BME280;56301;56.864;60.554;2022-08-02T01:12:59;98633.19;;;23.88;57.49
69187;BME280;56301;56.864;60.554;2022-08-02T01:15:21;98622.41;;;23.88;57.93
69187;BME280;56301;56.864;60.554;2022-08-02T01:23:24;98635.72;;;23.89;57.47
69187;BME280;56301;56.864;60.554;2022-08-02T01:26:14;98638.59;;;23.88;57.25
69187;BME280;56301;56.864;60.554;2022-08-02T01:28:38;98632.16;;;23.89;57.96
69187;BME280;56301;56.864;60.554;2022-08-02T01:33:31;98645.69;;;23.89;58.00
69187;BME280;56301;56.864;60.554;2022-08-02T01:35:56;98651.09;;;23.89;57.21
69187;BME280;56301;56.864;60.554;2022-08-02T01:40:43;98664.25;;;23.92;56.89
69187;BME280;56301;56.864;60.554;2022-08-02T01:43:06;98657.22;;;23.83;55.07
69187;BME280;56301;56.864;60.554;2022-08-02T01:45:32;98669.44;;;23.08;54.95
69187;BME280;56301;56.864;60.554;2022-08-02T01:47:55;98673.19;;;22.91;57.11
69187;BME280;56301;56.864;60.554;2022-08-02T01:50:20;98675.59;;;22.77;56.44
69187;BME280;56301;56.864;60.554;2022-08-02T01:52:46;98677.47;;;22.77;57.25
69187;BME280;56301;56.864;60.554;2022-08-02T01:55:17;98682.97;;;23.00;57.42
69187;BME280;56301;56.864;60.554;2022-08-02T01:57:48;98679.19;;;23.17;58.26
69187;BME280;56301;56.864;60.554;2022-08-02T02:00:11;98680.19;;;23.24;57.79
69187;BME280;56301;56.864;60.554;2022-08-02T02:02:35;98676.94;;;23.29;59.19
69187;BME280;56301;56.864;60.554;2022-08-02T02:04:58;98679.09;;;23.34;59.34
69187;BME280;56301;56.864;60.554;2022-08-02T02:07:21;98680.06;;;23.41;58.75
69187;BME280;56301;56.864;60.554;2022-08-02T02:09:44;98672.78;;;23.49;57.87
69187;BME280;56301;56.864;60.554;2022-08-02T02:12:07;98670.03;;;23.58;57.59
69187;BME280;56301;56.864;60.554;2022-08-02T02:14:32;98672.19;;;23.62;58.43
69187;BME280;56301;56.864;60.554;2022-08-02T02:16:55;98671.53;;;23.68;57.85
69187;BME280;56301;56.864;60.554;2022-08-02T02:19:18;98673.00;;;23.71;57.73
69187;BME280;56301;56.864;60.554;2022-08-02T02:21:41;98669.09;;;23.73;57.20
69187;BME280;56301;56.864;60.554;2022-08-02T02:24:04;98670.63;;;23.76;57.48
69187;BME280;56301;56.864;60.554;2022-08-02T02:26:26;98681.22;;;23.77;57.51
69187;BME280;56301;56.864;60.554;2022-08-02T02:28:51;98682.75;;;23.80;57.05
69187;BME280;56301;56.864;60.554;2022-08-02T02:31:15;98684.25;;;23.83;56.87
69187;BME280;56301;56.864;60.554;2022-08-02T02:33:39;98687.59;;;23.85;57.12
69187;BME280;56301;56.864;60.554;2022-08-02T02:36:03;98687.59;;;23.85;56.83
69187;BME280;56301;56.864;60.554;2022-08-02T02:38:27;98688.44;;;23.85;56.58
69187;BME280;56301;56.864;60.554;2022-08-02T02:40:51;98691.13;;;23.85;57.34
69187;BME280;56301;56.864;60.554;2022-08-02T02:43:14;98696.03;;;23.90;56.92
69187;BME280;56301;56.864;60.554;2022-08-02T02:45:37;98693.97;;;23.92;56.93
69187;BME280;56301;56.864;60.554;2022-08-02T02:48:00;98691.25;;;23.92;57.19
69187;BME280;56301;56.864;60.554;2022-08-02T02:50:23;98684.19;;;23.91;57.31
69187;BME280;56301;56.864;60.554;2022-08-02T02:52:46;98697.34;;;23.94;57.14
69187;BME280;56301;56.864;60.554;2022-08-02T02:55:09;98694.63;;;23.94;56.20
69187;BME280;56301;56.864;60.554;2022-08-02T02:57:32;98695.94;;;23.44;54.47
69187;BME280;56301;56.864;60.554;2022-08-02T02:59:56;98693.38;;;23.11;56.28
69187;BME280;56301;56.864;60.554;2022-08-02T03:02:19;98700.34;;;22.89;56.39
69187;BME280;56301;56.864;60.554;2022-08-02T03:04:41;98700.53;;;22.79;56.75
69187;BME280;56301;56.864;60.554;2022-08-02T03:07:04;98697.84;;;22.96;57.93
69187;BME280;56301;56.864;60.554;2022-08-02T03:09:27;98696.09;;;23.11;58.09
69187;BME280;56301;56.864;60.554;2022-08-02T03:11:49;98704.28;;;23.26;58.38
69187;BME280;56301;56.864;60.554;2022-08-02T03:14:12;98701.25;;;23.29;58.88
69187;BME280;56301;56.864;60.554;2022-08-02T03:16:42;98700.69;;;23.34;58.84
69187;BME280;56301;56.864;60.554;2022-08-02T03:19:05;98698.50;;;23.37;58.40
69187;BME280;56301;56.864;60.554;2022-08-02T03:21:28;98698.81;;;23.42;58.37
69187;BME280;56301;56.864;60.554;2022-08-02T03:23:50;98698.78;;;23.50;57.69
69187;BME280;56301;56.864;60.554;2022-08-02T03:26:13;98699.56;;;23.59;57.21
69187;BME280;56301;56.864;60.554;2022-08-02T03:28:35;98704.59;;;23.62;57.04
69187;BME280;56301;56.864;60.554;2022-08-02T03:30:58;98699.38;;;23.69;57.26
69187;BME280;56301;56.864;60.554;2022-08-02T03:33:21;98699.66;;;23.74;57.36
69187;BME280;56301;56.864;60.554;2022-08-02T03:35:45;98703.69;;;23.78;56.97
69187;BME280;56301;56.864;60.554;2022-08-02T03:38:09;98703.53;;;23.80;57.12
69187;BME280;56301;56.864;60.554;2022-08-02T03:40:33;98698.75;;;23.82;56.85
69187;BME280;56301;56.864;60.554;2022-08-02T03:42:57;98709.41;;;23.83;56.79
69187;BME280;56301;56.864;60.554;2022-08-02T03:45:20;98705.88;;;23.83;56.80
69187;BME280;56301;56.864;60.554;2022-08-02T03:47:43;98706.50;;;23.85;57.08
69187;BME280;56301;56.864;60.554;2022-08-02T03:50:06;98703.47;;;23.88;56.59
69187;BME280;56301;56.864;60.554;2022-08-02T03:52:29;98708.84;;;23.88;56.69
69187;BME280;56301;56.864;60.554;2022-08-02T03:54:52;98711.56;;;23.88;56.88
69187;BME280;56301;56.864;60.554;2022-08-02T03:57:15;98708.66;;;23.89;56.70
69187;BME280;56301;56.864;60.554;2022-08-02T03:59:41;98715.78;;;23.90;56.35
69187;BME280;56301;56.864;60.554;2022-08-02T04:02:03;98708.50;;;23.91;56.68
69187;BME280;56301;56.864;60.554;2022-08-02T04:04:26;98713.72;;;23.92;55.98
69187;BME280;56301;56.864;60.554;2022-08-02T04:06:48;98718.13;;;23.93;56.01
69187;BME280;56301;56.864;60.554;2022-08-02T04:09:11;98716.25;;;23.94;56.54
69187;BME280;56301;56.864;60.554;2022-08-02T04:11:33;98713.19;;;23.97;55.86
69187;BME280;56301;56.864;60.554;2022-08-02T04:13:56;98714.53;;;24.01;55.68
69187;BME280;56301;56.864;60.554;2022-08-02T04:16:19;98709.75;;;24.03;55.69
69187;BME280;56301;56.864;60.554;2022-08-02T04:18:44;98710.78;;;24.02;55.30
69187;BME280;56301;56.864;60.554;2022-08-02T04:21:07;98716.19;;;24.02;55.24
69187;BME280;56301;56.864;60.554;2022-08-02T04:23:32;98711.47;;;24.04;55.46
69187;BME280;56301;56.864;60.554;2022-08-02T04:25:55;98717.50;;;24.06;55.20
69187;BME280;56301;56.864;60.554;2022-08-02T04:28:18;98720.22;;;24.06;55.58
69187;BME280;56301;56.864;60.554;2022-08-02T04:30:41;98720.69;;;24.10;54.98
69187;BME280;56301;56.864;60.554;2022-08-02T04:33:04;98716.78;;;24.12;55.19
69187;BME280;56301;56.864;60.554;2022-08-02T04:35:27;98721.16;;;24.13;55.57
69187;BME280;56301;56.864;60.554;2022-08-02T04:37:51;98720.16;;;24.14;55.46
69187;BME280;56301;56.864;60.554;2022-08-02T04:40:17;98708.50;;;24.14;55.08
69187;BME280;56301;56.864;60.554;2022-08-02T04:42:42;98717.28;;;24.16;55.07
69187;BME280;56301;56.864;60.554;2022-08-02T04:45:05;98724.00;;;24.20;54.61
69187;BME280;56301;56.864;60.554;2022-08-02T04:47:27;98716.38;;;24.23;54.32
69187;BME280;56301;56.864;60.554;2022-08-02T04:49:50;98726.16;;;24.24;54.27
69187;BME280;56301;56.864;60.554;2022-08-02T04:52:12;98720.38;;;24.27;53.67
69187;BME280;56301;56.864;60.554;2022-08-02T04:54:35;98720.38;;;24.27;53.59
69187;BME280;56301;56.864;60.554;2022-08-02T04:56:57;98726.28;;;24.31;53.79
69187;BME280;56301;56.864;60.554;2022-08-02T04:59:20;98723.22;;;24.34;54.29
69187;BME280;56301;56.864;60.554;2022-08-02T05:01:42;98721.41;;;24.26;52.26
69187;BME280;56301;56.864;60.554;2022-08-02T05:04:07;98728.88;;;23.70;52.63
69187;BME280;56301;56.864;60.554;2022-08-02T05:06:30;98729.25;;;23.28;51.91
69187;BME280;56301;56.864;60.554;2022-08-02T05:08:52;98727.44;;;23.20;54.20
69187;BME280;56301;56.864;60.554;2022-08-02T05:11:18;98726.56;;;23.28;55.57
69187;BME280;56301;56.864;60.554;2022-08-02T05:13:43;98737.50;;;23.26;55.49
69187;BME280;56301;56.864;60.554;2022-08-02T05:16:06;98730.72;;;22.99;53.14
69187;BME280;56301;56.864;60.554;2022-08-02T05:18:34;98733.09;;;22.78;52.53
69187;BME280;56301;56.864;60.554;2022-08-02T05:20:59;98732.75;;;22.73;52.20
69187;BME280;56301;56.864;60.554;2022-08-02T05:23:21;98729.06;;;22.74;52.63
69187;BME280;56301;56.864;60.554;2022-08-02T05:25:44;98732.25;;;22.77;52.70
69187;BME280;56301;56.864;60.554;2022-08-02T05:28:09;98719.91;;;22.83;53.63
69187;BME280;56301;56.864;60.554;2022-08-02T05:30:31;98729.69;;;23.00;54.24
69187;BME280;56301;56.864;60.554;2022-08-02T05:32:53;98730.44;;;23.25;55.39
69187;BME280;56301;56.864;60.554;2022-08-02T05:35:17;98716.22;;;23.40;56.31
69187;BME280;56301;56.864;60.554;2022-08-02T05:37:39;98721.88;;;23.53;56.67
69187;BME280;56301;56.864;60.554;2022-08-02T05:40:02;98723.84;;;23.67;57.70
69187;BME280;56301;56.864;60.554;2022-08-02T05:42:24;98724.28;;;23.79;57.64
69187;BME280;56301;56.864;60.554;2022-08-02T05:44:47;98719.72;;;23.80;58.64
69187;BME280;56301;56.864;60.554;2022-08-02T05:47:09;98732.41;;;23.79;58.78
69187;BME280;56301;56.864;60.554;2022-08-02T05:49:32;98721.34;;;23.89;58.84
69187;BME280;56301;56.864;60.554;2022-08-02T05:52:08;98722.03;;;23.91;59.65
69187;BME280;56301;56.864;60.554;2022-08-02T05:57:01;98722.44;;;24.02;59.71
69187;BME280;56301;56.864;60.554;2022-08-02T05:59:31;98727.13;;;24.09;59.70
69187;BME280;56301;56.864;60.554;2022-08-02T06:01:55;98719.78;;;24.17;59.89
69187;BME280;56301;56.864;60.554;2022-08-02T06:04:32;98714.22;;;24.19;59.70
69187;BME280;56301;56.864;60.554;2022-08-02T06:06:55;98721.78;;;24.23;59.03
69187;BME280;56301;56.864;60.554;2022-08-02T06:09:21;98722.41;;;24.25;58.74
69187;BME280;56301;56.864;60.554;2022-08-02T06:11:44;98717.59;;;24.36;58.65
69187;BME280;56301;56.864;60.554;2022-08-02T06:14:07;98714.25;;;24.34;57.45
69187;BME280;56301;56.864;60.554;2022-08-02T06:16:29;98713.97;;;24.06;55.94
69187;BME280;56301;56.864;60.554;2022-08-02T06:18:52;98708.31;;;23.69;54.29
69187;BME280;56301;56.864;60.554;2022-08-02T06:21:14;98705.22;;;23.41;53.87
69187;BME280;56301;56.864;60.554;2022-08-02T06:23:41;98715.88;;;23.35;52.85
69187;BME280;56301;56.864;60.554;2022-08-02T06:26:03;98719.44;;;23.35;51.92
69187;BME280;56301;56.864;60.554;2022-08-02T06:28:27;98722.38;;;23.17;51.86
69187;BME280;56301;56.864;60.554;2022-08-02T06:30:51;98727.44;;;23.12;53.16
69187;BME280;56301;56.864;60.554;2022-08-02T06:33:14;98716.22;;;23.40;54.10
69187;BME280;56301;56.864;60.554;2022-08-02T06:35:42;98719.69;;;23.48;54.72
69187;BME280;56301;56.864;60.554;2022-08-02T06:38:05;98723.56;;;23.54;55.42
69187;BME280;56301;56.864;60.554;2022-08-02T06:42:57;98730.34;;;23.50;55.85
69187;BME280;56301;56.864;60.554;2022-08-02T06:45:21;98724.75;;;23.51;56.01
69187;BME280;56301;56.864;60.554;2022-08-02T06:47:44;98728.13;;;23.53;54.43
69187;BME280;56301;56.864;60.554;2022-08-02T06:50:06;98730.06;;;23.37;54.06
69187;BME280;56301;56.864;60.554;2022-08-02T06:52:29;98728.03;;;23.30;53.52
69187;BME280;56301;56.864;60.554;2022-08-02T06:54:51;98728.78;;;23.24;52.97
69187;BME280;56301;56.864;60.554;2022-08-02T06:57:13;98728.94;;;23.23;53.19
69187;BME280;56301;56.864;60.554;2022-08-02T06:59:36;98722.50;;;23.24;53.46
69187;BME280;56301;56.864;60.554;2022-08-02T07:01:58;98734.50;;;23.21;53.11
69187;BME280;56301;56.864;60.554;2022-08-02T07:04:21;98737.84;;;23.23;54.38
69187;BME280;56301;56.864;60.554;2022-08-02T07:06:43;98724.94;;;23.42;54.32
69187;BME280;56301;56.864;60.554;2022-08-02T07:09:05;98733.81;;;23.59;54.83
69187;BME280;56301;56.864;60.554;2022-08-02T07:11:28;98736.53;;;23.59;54.90
69187;BME280;56301;56.864;60.554;2022-08-02T07:13:50;98721.22;;;23.51;55.53
69187;BME280;56301;56.864;60.554;2022-08-02T07:16:13;98724.78;;;23.43;56.22
69187;BME280;56301;56.864;60.554;2022-08-02T07:18:35;98731.22;;;23.42;56.63
69187;BME280;56301;56.864;60.554;2022-08-02T07:20:57;98721.03;;;23.52;56.65
69187;BME280;56301;56.864;60.554;2022-08-02T07:23:20;98726.81;;;23.49;56.76
69187;BME280;56301;56.864;60.554;2022-08-02T07:25:43;98726.56;;;23.59;56.95
69187;BME280;56301;56.864;60.554;2022-08-02T07:28:05;98723.69;;;23.61;57.17
69187;BME280;56301;56.864;60.554;2022-08-02T07:30:30;98728.53;;;23.73;57.28
69187;BME280;56301;56.864;60.554;2022-08-02T07:32:52;98723.22;;;23.88;57.64
69187;BME280;56301;56.864;60.554;2022-08-02T07:35:15;98736.59;;;23.82;57.44
69187;BME280;56301;56.864;60.554;2022-08-02T07:37:37;98731.25;;;23.65;57.78
69187;BME280;56301;56.864;60.554;2022-08-02T07:39:59;98737.56;;;23.58;58.28
69187;BME280;56301;56.864;60.554;2022-08-02T07:42:22;98735.75;;;23.42;55.42
69187;BME280;56301;56.864;60.554;2022-08-02T07:44:45;98742.91;;;23.26;53.65
69187;BME280;56301;56.864;60.554;2022-08-02T07:47:07;98745.34;;;23.05;52.98
69187;BME280;56301;56.864;60.554;2022-08-02T07:49:30;98738.94;;;22.90;52.70
69187;BME280;56301;56.864;60.554;2022-08-02T07:51:52;98730.84;;;22.90;52.59
69187;BME280;56301;56.864;60.554;2022-08-02T07:54:14;98737.44;;;22.87;52.62
69187;BME280;56301;56.864;60.554;2022-08-02T07:56:37;98731.38;;;22.85;52.78
69187;BME280;56301;56.864;60.554;2022-08-02T07:58:59;98738.13;;;22.81;52.78
69187;BME280;56301;56.864;60.554;2022-08-02T08:01:22;98739.66;;;22.75;52.82
69187;BME280;56301;56.864;60.554;2022-08-02T08:03:44;98740.34;;;22.77;53.54
69187;BME280;56301;56.864;60.554;2022-08-02T08:06:07;98731.38;;;22.93;53.35
69187;BME280;56301;56.864;60.554;2022-08-02T08:08:29;98738.09;;;23.14;53.87
69187;BME280;56301;56.864;60.554;2022-08-02T08:10:51;98738.84;;;23.30;54.33
69187;BME280;56301;56.864;60.554;2022-08-02T08:13:14;98739.00;;;23.37;54.63
69187;BME280;56301;56.864;60.554;2022-08-02T08:15:37;98739.88;;;23.29;55.52
69187;BME280;56301;56.864;60.554;2022-08-02T08:17:59;98737.84;;;23.23;56.00
69187;BME280;56301;56.864;60.554;2022-08-02T08:20:21;98733.19;;;23.17;55.28
69187;BME280;56301;56.864;60.554;2022-08-02T08:22:44;98735.38;;;23.14;56.68
69187;BME280;56301;56.864;60.554;2022-08-02T08:25:06;98734.66;;;23.28;56.58
69187;BME280;56301;56.864;60.554;2022-08-02T08:27:29;98734.56;;;23.44;56.61
69187;BME280;56301;56.864;60.554;2022-08-02T08:29:51;98736.03;;;23.55;56.91
69187;BME280;56301;56.864;60.554;2022-08-02T08:32:14;98744.28;;;23.62;56.82
69187;BME280;56301;56.864;60.554;2022-08-02T08:34:36;98728.91;;;23.62;57.18
69187;BME280;56301;56.864;60.554;2022-08-02T08:36:58;98735.38;;;23.53;57.67
69187;BME280;56301;56.864;60.554;2022-08-02T08:39:21;98744.34;;;23.45;58.32
69187;BME280;56301;56.864;60.554;2022-08-02T08:41:43;98739.13;;;23.44;58.34
69187;BME280;56301;56.864;60.554;2022-08-02T08:44:06;98739.63;;;23.47;58.62
69187;BME280;56301;56.864;60.554;2022-08-02T08:46:30;98745.88;;;23.48;59.21
69187;BME280;56301;56.864;60.554;2022-08-02T08:48:57;98733.06;;;23.42;59.26
69187;BME280;56301;56.864;60.554;2022-08-02T08:51:20;98739.47;;;23.41;58.68
69187;BME280;56301;56.864;60.554;2022-08-02T08:53:43;98738.66;;;23.40;58.94
69187;BME280;56301;56.864;60.554;2022-08-02T08:56:07;98745.56;;;23.35;59.18
69187;BME280;56301;56.864;60.554;2022-08-02T08:58:30;98746.78;;;23.32;59.24
69187;BME280;56301;56.864;60.554;2022-08-02T09:00:52;98746.63;;;23.25;56.79
69187;BME280;56301;56.864;60.554;2022-08-02T09:03:14;98745.50;;;23.12;55.57
69187;BME280;56301;56.864;60.554;2022-08-02T09:05:37;98734.88;;;23.02;54.43
69187;BME280;56301;56.864;60.554;2022-08-02T09:08:00;98727.97;;;22.91;53.72
69187;BME280;56301;56.864;60.554;2022-08-02T09:13:12;98731.19;;;22.87;52.61
69187;BME280;56301;56.864;60.554;2022-08-02T09:15:35;98724.47;;;22.82;52.27
69187;BME280;56301;56.864;60.554;2022-08-02T09:17:58;98742.69;;;22.72;51.97
69187;BME280;56301;56.864;60.554;2022-08-02T09:20:20;98742.53;;;22.66;52.05
69187;BME280;56301;56.864;60.554;2022-08-02T09:22:43;98735.81;;;22.53;51.98
69187;BME280;56301;56.864;60.554;2022-08-02T09:25:05;98736.47;;;22.47;52.12
69187;BME280;56301;56.864;60.554;2022-08-02T09:27:36;98731.25;;;22.54;51.95
69187;BME280;56301;56.864;60.554;2022-08-02T09:29:58;98727.88;;;22.68;51.73
69187;BME280;56301;56.864;60.554;2022-08-02T09:32:21;98723.81;;;22.80;52.00
69187;BME280;56301;56.864;60.554;2022-08-02T09:34:44;98731.88;;;22.97;52.85
69187;BME280;56301;56.864;60.554;2022-08-02T09:37:07;98724.81;;;22.96;53.29
69187;BME280;56301;56.864;60.554;2022-08-02T09:39:42;98719.75;;;22.93;53.55
69187;BME280;56301;56.864;60.554;2022-08-02T09:42:08;98727.31;;;22.97;53.85
69187;BME280;56301;56.864;60.554;2022-08-02T09:44:30;98722.56;;;23.08;54.56
69187;BME280;56301;56.864;60.554;2022-08-02T09:46:53;98730.28;;;23.19;54.59
69187;BME280;56301;56.864;60.554;2022-08-02T09:49:16;98727.22;;;23.30;55.00
69187;BME280;56301;56.864;60.554;2022-08-02T09:51:40;98728.19;;;23.37;55.65
69187;BME280;56301;56.864;60.554;2022-08-02T09:54:09;98732.75;;;23.37;55.40
69187;BME280;56301;56.864;60.554;2022-08-02T09:56:39;98727.50;;;23.43;56.22
69187;BME280;56301;56.864;60.554;2022-08-02T09:59:05;98720.03;;;23.45;56.13
69187;BME280;56301;56.864;60.554;2022-08-02T10:01:31;98725.78;;;23.50;56.35
69187;BME280;56301;56.864;60.554;2022-08-02T10:03:58;98729.13;;;23.52;56.48
69187;BME280;56301;56.864;60.554;2022-08-02T10:06:21;98730.50;;;23.48;57.15
69187;BME280;56301;56.864;60.554;2022-08-02T10:08:47;98727.63;;;23.50;57.37
69187;BME280;56301;56.864;60.554;2022-08-02T10:11:09;98724.94;;;23.50;57.51
69187;BME280;56301;56.864;60.554;2022-08-02T10:13:33;98728.81;;;23.47;57.29
69187;BME280;56301;56.864;60.554;2022-08-02T10:15:55;98723.22;;;23.49;57.99
69187;BME280;56301;56.864;60.554;2022-08-02T10:18:18;98724.78;;;23.43;58.86
69187;BME280;56301;56.864;60.554;2022-08-02T10:20:42;98726.31;;;23.38;59.02
69187;BME280;56301;56.864;60.554;2022-08-02T10:23:06;98734.78;;;23.35;59.18
69187;BME280;56301;56.864;60.554;2022-08-02T10:25:29;98731.91;;;23.36;58.82
69187;BME280;56301;56.864;60.554;2022-08-02T10:27:52;98733.53;;;23.45;58.61
69187;BME280;56301;56.864;60.554;2022-08-02T10:30:14;98734.72;;;23.51;58.64
69187;BME280;56301;56.864;60.554;2022-08-02T10:32:41;98725.22;;;23.55;58.52
69187;BME280;56301;56.864;60.554;2022-08-02T10:35:17;98724.88;;;23.58;58.70
69187;BME280;56301;56.864;60.554;2022-08-02T10:37:40;98734.31;;;23.62;58.60
69187;BME280;56301;56.864;60.554;2022-08-02T10:40:07;98734.13;;;23.64;58.53
69187;BME280;56301;56.864;60.554;2022-08-02T10:42:43;98732.44;;;23.63;58.02
69187;BME280;56301;56.864;60.554;2022-08-02T10:45:09;98726.88;;;23.64;58.22
69187;BME280;56301;56.864;60.554;2022-08-02T10:47:32;98729.44;;;23.58;58.28
69187;BME280;56301;56.864;60.554;2022-08-02T10:49:55;98739.03;;;23.60;58.46
69187;BME280;56301;56.864;60.554;2022-08-02T10:52:19;98735.34;;;23.61;58.50
69187;BME280;56301;56.864;60.554;2022-08-02T10:54:48;98739.72;;;23.62;57.95
69187;BME280;56301;56.864;60.554;2022-08-02T10:57:15;98723.69;;;23.61;58.45
69187;BME280;56301;56.864;60.554;2022-08-02T10:59:38;98736.00;;;23.63;58.64
69187;BME280;56301;56.864;60.554;2022-08-02T11:02:00;98732.63;;;23.61;58.90
69187;BME280;56301;56.864;60.554;2022-08-02T11:04:24;98723.22;;;23.57;59.21
69187;BME280;56301;56.864;60.554;2022-08-02T11:09:28;98727.28;;;23.53;59.32
69187;BME280;56301;56.864;60.554;2022-08-02T11:12:00;98718.50;;;23.51;59.15
69187;BME280;56301;56.864;60.554;2022-08-02T11:14:23;98728.28;;;23.52;59.27
69187;BME280;56301;56.864;60.554;2022-08-02T11:19:18;98732.19;;;23.49;60.04
69187;BME280;56301;56.864;60.554;2022-08-02T11:21:40;98739.63;;;23.47;60.22
69187;BME280;56301;56.864;60.554;2022-08-02T11:24:23;98734.41;;;23.46;59.90
69187;BME280;56301;56.864;60.554;2022-08-02T11:26:46;98735.75;;;23.42;59.42
69187;BME280;56301;56.864;60.554;2022-08-02T11:29:08;98728.69;;;23.41;59.82
69187;BME280;56301;56.864;60.554;2022-08-02T11:31:38;98736.78;;;23.41;59.45
69187;BME280;56301;56.864;60.554;2022-08-02T11:34:01;98737.81;;;23.40;59.63
69187;BME280;56301;56.864;60.554;2022-08-02T11:36:24;98738.84;;;23.39;59.18
69187;BME280;56301;56.864;60.554;2022-08-02T11:38:48;98735.88;;;23.09;57.26
69187;BME280;56301;56.864;60.554;2022-08-02T11:41:20;98739.13;;;22.88;55.68
69187;BME280;56301;56.864;60.554;2022-08-02T11:43:42;98751.63;;;22.73;55.09
69187;BME280;56301;56.864;60.554;2022-08-02T11:46:10;98743.22;;;22.68;55.47
69187;BME280;56301;56.864;60.554;2022-08-02T11:48:34;98746.09;;;22.66;55.34
69187;BME280;56301;56.864;60.554;2022-08-02T11:51:04;98750.47;;;22.67;54.97
69187;BME280;56301;56.864;60.554;2022-08-02T11:53:27;98750.28;;;22.69;55.54
69187;BME280;56301;56.864;60.554;2022-08-02T11:55:49;98751.63;;;22.73;55.67
69187;BME280;56301;56.864;60.554;2022-08-02T11:58:17;98742.69;;;22.80;56.18
69187;BME280;56301;56.864;60.554;2022-08-02T12:00:40;98737.09;;;22.90;56.40
69187;BME280;56301;56.864;60.554;2022-08-02T12:03:02;98743.84;;;22.94;56.33
69187;BME280;56301;56.864;60.554;2022-08-02T12:05:25;98745.38;;;22.97;56.65
69187;BME280;56301;56.864;60.554;2022-08-02T12:07:47;98756.84;;;22.99;57.00
69187;BME280;56301;56.864;60.554;2022-08-02T12:10:16;98749.41;;;23.01;56.80
69187;BME280;56301;56.864;60.554;2022-08-02T12:15:10;98757.34;;;23.02;57.10
69187;BME280;56301;56.864;60.554;2022-08-02T12:17:32;98759.19;;;23.02;58.10
69187;BME280;56301;56.864;60.554;2022-08-02T12:19:55;98764.72;;;23.09;57.95
69187;BME280;56301;56.864;60.554;2022-08-02T12:22:18;98753.78;;;23.10;58.40
69187;BME280;56301;56.864;60.554;2022-08-02T12:24:42;98754.63;;;23.11;59.21
69187;BME280;56301;56.864;60.554;2022-08-02T12:27:05;98765.06;;;23.14;59.37
69187;BME280;56301;56.864;60.554;2022-08-02T12:29:35;98760.31;;;23.16;59.08
69187;BME280;56301;56.864;60.554;2022-08-02T12:31:58;98758.28;;;23.26;59.41
69187;BME280;56301;56.864;60.554;2022-08-02T12:34:20;98760.44;;;23.30;59.44
69187;BME280;56301;56.864;60.554;2022-08-02T12:37:00;98760.78;;;23.36;59.59
69187;BME280;56301;56.864;60.554;2022-08-02T12:39:36;98756.22;;;23.36;59.94
69187;BME280;56301;56.864;60.554;2022-08-02T12:41:59;98760.94;;;23.34;60.34
69187;BME280;56301;56.864;60.554;2022-08-02T12:44:22;98759.59;;;23.30;60.60
69187;BME280;56301;56.864;60.554;2022-08-02T12:46:44;98764.00;;;23.23;60.32
69187;BME280;56301;56.864;60.554;2022-08-02T12:49:19;98767.53;;;23.32;60.55
69187;BME280;56301;56.864;60.554;2022-08-02T12:51:41;98760.28;;;23.32;60.77
69187;BME280;56301;56.864;60.554;2022-08-02T12:54:20;98762.50;;;23.28;61.03
69187;BME280;56301;56.864;60.554;2022-08-02T12:56:42;98763.31;;;23.29;61.28
69187;BME280;56301;56.864;60.554;2022-08-02T12:59:05;98766.56;;;23.24;60.17
69187;BME280;56301;56.864;60.554;2022-08-02T13:01:28;98760.16;;;23.09;58.83